sensor_id;sensor_type;location;lat;lon;timestamp;pressure;altitude;pressure_sealevel;temperature;humidity
3102;BME280;1561;42.666;23.392;2023-11-22T00:01:19;94515.97;;;7.77;100.00
3102;BME280;1561;42.666;23.392;2023-11-22T00:04:06;94499.28;;;7.84;100.00
3102;BME280;1561;42.666;23.392;2023-11-22T00:06:37;94508.94;;;7.90;100.00
3102;BME280;1561;42.666;23.392;2023-11-22T00:09:16;94495.69;;;7.87;100.00
3102;BME280;1561;42.666;23.392;2023-11-22T00:11:48;94500.59;;;7.99;100.00
3102;BME280;1561;42.666;23.392;2023-11-22T00:14:19;94507.00;;;8.03;100.00
3102;BME280;1561;42.666;23.392;2023-11-22T00:16:59;94472.44;;;7.91;100.00
3102;BME280;1561;42.666;23.392;2023-11-22T00:19:29;94443.97;;;7.77;100.00
3102;BME280;1561;42.666;23.392;2023-11-22T00:22:09;94496.16;;;8.22;100.00
3102;BME280;1561;42.666;23.392;2023-11-22T00:24:45;94490.63;;;8.17;100.00
3102;BME280;1561;42.666;23.392;2023-11-22T00:27:31;94485.34;;;8.09;100.00
3102;BME280;1561;42.666;23.392;2023-11-22T00:30:03;94481.16;;;7.98;100.00
3102;BME280;1561;42.666;23.392;2023-11-22T00:35:31;94491.41;;;7.87;100.00
3102;BME280;1561;42.666;23.392;2023-11-22T00:38:03;94475.47;;;7.85;100.00
3102;BME280;1561;42.666;23.392;2023-11-22T00:40:32;94489.16;;;7.94;100.00
3102;BME280;1561;42.666;23.392;2023-11-22T00:43:04;94486.81;;;8.02;100.00
3102;BME280;1561;42.666;23.392;2023-11-22T00:45:43;94473.69;;;8.06;100.00
3102;BME280;1561;42.666;23.392;2023-11-22T00:48:25;94497.00;;;8.11;100.00
3102;BME280;1561;42.666;23.392;2023-11-22T00:51:00;94500.19;;;8.04;100.00
3102;BME280;1561;42.666;23.392;2023-11-22T00:53:51;94489.50;;;8.10;100.00
3102;BME280;1561;42.666;23.392;2023-11-22T00:56:21;94479.97;;;8.23;100.00
3102;BME280;1561;42.666;23.392;2023-11-22T00:58:59;94476.66;;;8.32;100.00
3102;BME280;1561;42.666;23.392;2023-11-22T01:01:34;94482.88;;;8.18;100.00
3102;BME280;1561;42.666;23.392;2023-11-22T01:04:10;94476.47;;;8.03;100.00
3102;BME280;1561;42.666;23.392;2023-11-22T01:06:45;94467.81;;;7.85;100.00
3102;BME280;1561;42.666;23.392;2023-11-22T01:09:30;94432.03;;;7.68;100.00
3102;BME280;1561;42.666;23.392;2023-11-22T01:12:06;94472.03;;;7.96;100.00
3102;BME280;1561;42.666;23.392;2023-11-22T01:14:43;94467.44;;;8.10;100.00
3102;BME280;1561;42.666;23.392;2023-11-22T01:17:19;94481.88;;;8.10;100.00
3102;BME280;1561;42.666;23.392;2023-11-22T01:19:47;94469.03;;;8.11;100.00
3102;BME280;1561;42.666;23.392;2023-11-22T01:22:24;94460.16;;;8.06;100.00
3102;BME280;1561;42.666;23.392;2023-11-22T01:24:59;94437.44;;;8.04;100.00
3102;BME280;1561;42.666;23.392;2023-11-22T01:27:34;94425.63;;;8.03;100.00
3102;BME280;1561;42.666;23.392;2023-11-22T01:30:20;94462.34;;;8.10;100.00
3102;BME280;1561;42.666;23.392;2023-11-22T01:32:51;94413.38;;;7.88;100.00
3102;BME280;1561;42.666;23.392;2023-11-22T01:38:13;94454.66;;;8.01;100.00
3102;BME280;1561;42.666;23.392;2023-11-22T01:40:46;94450.16;;;8.14;100.00
3102;BME280;1561;42.666;23.392;2023-11-22T01:43:18;94434.53;;;8.18;100.00
3102;BME280;1561;42.666;23.392;2023-11-22T01:46:03;94420.97;;;8.08;100.00
3102;BME280;1561;42.666;23.392;2023-11-22T01:48:33;94431.81;;;8.10;100.00
3102;BME280;1561;42.666;23.392;2023-11-22T01:51:09;94400.28;;;7.92;100.00
3102;BME280;1561;42.666;23.392;2023-11-22T01:53:49;94410.72;;;7.89;100.00
3102;BME280;1561;42.666;23.392;2023-11-22T01:56:24;94352.47;;;7.77;100.00
3102;BME280;1561;42.666;23.392;2023-11-22T01:58:55;94439.69;;;8.07;100.00
3102;BME280;1561;42.666;23.392;2023-11-22T02:01:31;94428.75;;;8.16;100.00
3102;BME280;1561;42.666;23.392;2023-11-22T02:04:07;94431.81;;;8.10;100.00
3102;BME280;1561;42.666;23.392;2023-11-22T02:06:39;94424.47;;;8.17;100.00
3102;BME280;1561;42.666;23.392;2023-11-22T02:09:13;94407.81;;;7.94;100.00
3102;BME280;1561;42.666;23.392;2023-11-22T02:12:19;94445.72;;;8.06;100.00
3102;BME280;1561;42.666;23.392;2023-11-22T02:14:48;94419.88;;;8.01;100.00
3102;BME280;1561;42.666;23.392;2023-11-22T02:17:20;94430.88;;;8.02;100.00
3102;BME280;1561;42.666;23.392;2023-11-22T02:19:49;94391.44;;;7.87;100.00
3102;BME280;1561;42.666;23.392;2023-11-22T02:22:22;94393.84;;;7.88;100.00
3102;BME280;1561;42.666;23.392;2023-11-22T02:25:06;94404.69;;;7.90;100.00
3102;BME280;1561;42.666;23.392;2023-11-22T02:27:40;94419.53;;;8.15;100.00
3102;BME280;1561;42.666;23.392;2023-11-22T02:30:13;94392.53;;;7.94;100.00
3102;BME280;1561;42.666;23.392;2023-11-22T02:32:47;94413.72;;;8.04;100.00
3102;BME280;1561;42.666;23.392;2023-11-22T02:35:20;94391.97;;;7.90;100.00
3102;BME280;1561;42.666;23.392;2023-11-22T02:37:49;94431.16;;;8.08;100.00
3102;BME280;1561;42.666;23.392;2023-11-22T02:40:19;94421.00;;;8.18;100.00
3102;BME280;1561;42.666;23.392;2023-11-22T02:42:52;94426.53;;;8.23;100.00
3102;BME280;1561;42.666;23.392;2023-11-22T02:45:26;94343.72;;;7.60;100.00
3102;BME280;1561;42.666;23.392;2023-11-22T02:47:55;94429.44;;;8.18;100.00
3102;BME280;1561;42.666;23.392;2023-11-22T02:50:29;94417.38;;;8.11;100.00
3102;BME280;1561;42.666;23.392;2023-11-22T02:53:15;94433.09;;;8.25;100.00
3102;BME280;1561;42.666;23.392;2023-11-22T02:55:49;94365.06;;;7.78;100.00
3102;BME280;1561;42.666;23.392;2023-11-22T02:58:32;94421.31;;;7.94;100.00
3102;BME280;1561;42.666;23.392;2023-11-22T03:01:05;94358.44;;;7.66;100.00
3102;BME280;1561;42.666;23.392;2023-11-22T03:03:33;94433.50;;;8.21;100.00
3102;BME280;1561;42.666;23.392;2023-11-22T03:06:08;94427.41;;;8.12;100.00
3102;BME280;1561;42.666;23.392;2023-11-22T03:08:47;94409.53;;;7.93;100.00
3102;BME280;1561;42.666;23.392;2023-11-22T03:11:41;94435.19;;;8.11;100.00
3102;BME280;1561;42.666;23.392;2023-11-22T03:14:09;94443.91;;;8.18;100.00
3102;BME280;1561;42.666;23.392;2023-11-22T03:16:52;94444.16;;;8.15;100.00
3102;BME280;1561;42.666;23.392;2023-11-22T03:19:25;94430.22;;;8.09;100.00
3102;BME280;1561;42.666;23.392;2023-11-22T03:21:55;94437.84;;;8.09;100.00
3102;BME280;1561;42.666;23.392;2023-11-22T03:24:24;94443.47;;;8.13;100.00
3102;BME280;1561;42.666;23.392;2023-11-22T03:27:05;94433.00;;;8.06;100.00
3102;BME280;1561;42.666;23.392;2023-11-22T03:29:39;94433.19;;;8.14;100.00
3102;BME280;1561;42.666;23.392;2023-11-22T03:32:14;94447.09;;;8.40;100.00
3102;BME280;1561;42.666;23.392;2023-11-22T03:34:44;94442.09;;;8.29;100.00
3102;BME280;1561;42.666;23.392;2023-11-22T03:37:25;94452.03;;;8.32;100.00
3102;BME280;1561;42.666;23.392;2023-11-22T03:39:55;94372.38;;;8.02;100.00
3102;BME280;1561;42.666;23.392;2023-11-22T03:42:56;94433.97;;;8.35;100.00
3102;BME280;1561;42.666;23.392;2023-11-22T03:45:27;94434.47;;;8.29;100.00
3102;BME280;1561;42.666;23.392;2023-11-22T03:48:03;94414.75;;;8.22;100.00
3102;BME280;1561;42.666;23.392;2023-11-22T03:50:39;94441.34;;;8.18;100.00
3102;BME280;1561;42.666;23.392;2023-11-22T03:53:08;94434.34;;;8.31;100.00
3102;BME280;1561;42.666;23.392;2023-11-22T03:55:49;94413.78;;;8.13;100.00
3102;BME280;1561;42.666;23.392;2023-11-22T03:58:35;94399.34;;;7.93;100.00
3102;BME280;1561;42.666;23.392;2023-11-22T04:01:04;94381.53;;;7.84;100.00
3102;BME280;1561;42.666;23.392;2023-11-22T04:04:03;94427.97;;;8.16;100.00
3102;BME280;1561;42.666;23.392;2023-11-22T04:06:46;94430.50;;;8.16;100.00
3102;BME280;1561;42.666;23.392;2023-11-22T04:09:21;94446.16;;;8.11;100.00
3102;BME280;1561;42.666;23.392;2023-11-22T04:11:59;94441.03;;;8.02;100.00
3102;BME280;1561;42.666;23.392;2023-11-22T04:14:53;94445.91;;;8.14;100.00
3102;BME280;1561;42.666;23.392;2023-11-22T04:17:36;94453.03;;;8.20;100.00
3102;BME280;1561;42.666;23.392;2023-11-22T04:20:08;94449.63;;;8.10;100.00
3102;BME280;1561;42.666;23.392;2023-11-22T04:22:39;94457.34;;;7.99;100.00
3102;BME280;1561;42.666;23.392;2023-11-22T04:25:12;94447.78;;;7.92;100.00
3102;BME280;1561;42.666;23.392;2023-11-22T04:27:42;94469.25;;;7.99;100.00
3102;BME280;1561;42.666;23.392;2023-11-22T04:30:16;94421.91;;;7.77;100.00
3102;BME280;1561;42.666;23.392;2023-11-22T04:32:48;94473.66;;;7.97;100.00
3102;BME280;1561;42.666;23.392;2023-11-22T04:35:19;94477.47;;;8.12;100.00
3102;BME280;1561;42.666;23.392;2023-11-22T04:37:49;94474.91;;;8.32;100.00
3102;BME280;1561;42.666;23.392;2023-11-22T04:40:17;94492.22;;;8.18;100.00
3102;BME280;1561;42.666;23.392;2023-11-22T04:42:46;94483.56;;;8.20;100.00
3102;BME280;1561;42.666;23.392;2023-11-22T04:45:22;94472.94;;;8.15;100.00
3102;BME280;1561;42.666;23.392;2023-11-22T04:47:50;94448.38;;;7.95;100.00
3102;BME280;1561;42.666;23.392;2023-11-22T04:50:24;94498.06;;;8.29;100.00
3102;BME280;1561;42.666;23.392;2023-11-22T04:52:55;94494.22;;;8.14;100.00
3102;BME280;1561;42.666;23.392;2023-11-22T04:55:25;94499.81;;;8.08;100.00
3102;BME280;1561;42.666;23.392;2023-11-22T04:57:55;94498.03;;;7.99;100.00
3102;BME280;1561;42.666;23.392;2023-11-22T05:00:47;94517.47;;;8.10;100.00
3102;BME280;1561;42.666;23.392;2023-11-22T05:03:18;94531.09;;;7.99;100.00
3102;BME280;1561;42.666;23.392;2023-11-22T05:05:58;94516.88;;;7.97;100.00
3102;BME280;1561;42.666;23.392;2023-11-22T05:08:46;94541.63;;;8.15;100.00
3102;BME280;1561;42.666;23.392;2023-11-22T05:11:21;94545.84;;;8.26;100.00
3102;BME280;1561;42.666;23.392;2023-11-22T05:13:52;94540.22;;;8.22;100.00
3102;BME280;1561;42.666;23.392;2023-11-22T05:16:30;94544.50;;;8.22;100.00
3102;BME280;1561;42.666;23.392;2023-11-22T05:19:01;94559.00;;;8.31;100.00
3102;BME280;1561;42.666;23.392;2023-11-22T05:21:33;94502.56;;;7.96;100.00
3102;BME280;1561;42.666;23.392;2023-11-22T05:24:04;94524.34;;;8.19;100.00
3102;BME280;1561;42.666;23.392;2023-11-22T05:26:36;94547.34;;;8.28;100.00
3102;BME280;1561;42.666;23.392;2023-11-22T05:29:08;94553.97;;;8.20;100.00
3102;BME280;1561;42.666;23.392;2023-11-22T05:31:56;94567.69;;;8.08;100.00
3102;BME280;1561;42.666;23.392;2023-11-22T05:34:25;94570.28;;;8.17;100.00
3102;BME280;1561;42.666;23.392;2023-11-22T05:36:54;94568.22;;;8.22;100.00
3102;BME280;1561;42.666;23.392;2023-11-22T05:39:37;94563.25;;;8.21;100.00
3102;BME280;1561;42.666;23.392;2023-11-22T05:42:06;94584.41;;;8.21;100.00
3102;BME280;1561;42.666;23.392;2023-11-22T05:44:36;94557.69;;;8.16;100.00
3102;BME280;1561;42.666;23.392;2023-11-22T05:47:17;94591.09;;;8.43;100.00
3102;BME280;1561;42.666;23.392;2023-11-22T05:49:45;94524.50;;;7.97;100.00
3102;BME280;1561;42.666;23.392;2023-11-22T05:52:18;94580.59;;;8.36;100.00
3102;BME280;1561;42.666;23.392;2023-11-22T05:55:02;94589.59;;;8.40;100.00
3102;BME280;1561;42.666;23.392;2023-11-22T05:57:36;94598.91;;;8.51;100.00
3102;BME280;1561;42.666;23.392;2023-11-22T06:00:06;94601.38;;;8.41;100.00
3102;BME280;1561;42.666;23.392;2023-11-22T06:02:39;94581.22;;;8.29;100.00
3102;BME280;1561;42.666;23.392;2023-11-22T06:05:12;94605.06;;;8.48;100.00
3102;BME280;1561;42.666;23.392;2023-11-22T06:07:40;94608.69;;;8.55;100.00
3102;BME280;1561;42.666;23.392;2023-11-22T06:10:10;94607.28;;;8.72;100.00
3102;BME280;1561;42.666;23.392;2023-11-22T06:12:41;94614.16;;;8.81;100.00
3102;BME280;1561;42.666;23.392;2023-11-22T06:15:10;94625.47;;;8.88;100.00
3102;BME280;1561;42.666;23.392;2023-11-22T06:17:46;94626.81;;;8.92;100.00
3102;BME280;1561;42.666;23.392;2023-11-22T06:20:15;94625.47;;;8.88;100.00
3102;BME280;1561;42.666;23.392;2023-11-22T06:22:42;94628.59;;;9.01;100.00
3102;BME280;1561;42.666;23.392;2023-11-22T06:25:11;94635.16;;;8.73;100.00
3102;BME280;1561;42.666;23.392;2023-11-22T06:27:42;94652.63;;;8.78;100.00
3102;BME280;1561;42.666;23.392;2023-11-22T06:30:20;94645.72;;;8.89;100.00
3102;BME280;1561;42.666;23.392;2023-11-22T06:32:52;94631.50;;;8.87;100.00
3102;BME280;1561;42.666;23.392;2023-11-22T06:35:22;94644.06;;;8.79;100.00
3102;BME280;1561;42.666;23.392;2023-11-22T06:37:58;94649.19;;;8.88;100.00
3102;BME280;1561;42.666;23.392;2023-11-22T06:40:30;94639.63;;;8.81;100.00
3102;BME280;1561;42.666;23.392;2023-11-22T06:42:57;94568.06;;;8.44;100.00
3102;BME280;1561;42.666;23.392;2023-11-22T06:45:31;94640.63;;;8.89;100.00
3102;BME280;1561;42.666;23.392;2023-11-22T06:48:04;94625.47;;;8.88;100.00
3102;BME280;1561;42.666;23.392;2023-11-22T06:50:35;94667.94;;;9.08;100.00
3102;BME280;1561;42.666;23.392;2023-11-22T06:53:05;94677.09;;;8.90;100.00
3102;BME280;1561;42.666;23.392;2023-11-22T06:55:34;94666.50;;;8.94;100.00
3102;BME280;1561;42.666;23.392;2023-11-22T06:58:03;94645.41;;;8.83;100.00
3102;BME280;1561;42.666;23.392;2023-11-22T07:00:32;94675.72;;;9.16;100.00
3102;BME280;1561;42.666;23.392;2023-11-22T07:03:09;94666.75;;;8.91;100.00
3102;BME280;1561;42.666;23.392;2023-11-22T07:05:43;94677.28;;;9.07;100.00
3102;BME280;1561;42.666;23.392;2023-11-22T07:08:12;94689.19;;;9.37;100.00
3102;BME280;1561;42.666;23.392;2023-11-22T07:10:48;94692.78;;;9.25;100.00
3102;BME280;1561;42.666;23.392;2023-11-22T07:13:18;94681.63;;;9.17;100.00
3102;BME280;1561;42.666;23.392;2023-11-22T07:15:49;94685.28;;;9.33;100.00
3102;BME280;1561;42.666;23.392;2023-11-22T07:18:23;94679.91;;;9.27;100.00
3102;BME280;1561;42.666;23.392;2023-11-22T07:21:01;94680.91;;;9.45;100.00
3102;BME280;1561;42.666;23.392;2023-11-22T07:23:37;94687.34;;;9.49;100.00
3102;BME280;1561;42.666;23.392;2023-11-22T07:26:08;94696.19;;;9.45;100.00
3102;BME280;1561;42.666;23.392;2023-11-22T07:28:40;94692.28;;;9.41;100.00
3102;BME280;1561;42.666;23.392;2023-11-22T07:31:13;94689.00;;;9.50;100.00
3102;BME280;1561;42.666;23.392;2023-11-22T07:33:42;94687.53;;;9.57;100.00
3102;BME280;1561;42.666;23.392;2023-11-22T07:36:31;94699.09;;;9.70;100.00
3102;BME280;1561;42.666;23.392;2023-11-22T07:39:03;94694.53;;;9.74;100.00
3102;BME280;1561;42.666;23.392;2023-11-22T07:41:32;94697.22;;;9.72;100.00
3102;BME280;1561;42.666;23.392;2023-11-22T07:44:21;94701.78;;;9.78;100.00
3102;BME280;1561;42.666;23.392;2023-11-22T07:46:49;94704.34;;;9.69;100.00
3102;BME280;1561;42.666;23.392;2023-11-22T07:49:17;94697.19;;;9.63;100.00
3102;BME280;1561;42.666;23.392;2023-11-22T07:51:49;94696.19;;;9.45;100.00
3102;BME280;1561;42.666;23.392;2023-11-22T07:54:22;94715.38;;;9.98;100.00
3102;BME280;1561;42.666;23.392;2023-11-22T07:56:52;94706.88;;;9.78;100.00
3102;BME280;1561;42.666;23.392;2023-11-22T07:59:20;94719.84;;;9.56;100.00
3102;BME280;1561;42.666;23.392;2023-11-22T08:01:53;94699.06;;;9.61;100.00
3102;BME280;1561;42.666;23.392;2023-11-22T08:04:33;94726.59;;;9.57;100.00
3102;BME280;1561;42.666;23.392;2023-11-22T08:07:02;94715.38;;;9.88;100.00
3102;BME280;1561;42.666;23.392;2023-11-22T08:09:32;94717.38;;;9.75;100.00
3102;BME280;1561;42.666;23.392;2023-11-22T08:12:01;94718.19;;;9.85;100.00
3102;BME280;1561;42.666;23.392;2023-11-22T08:14:38;94713.53;;;10.09;100.00
3102;BME280;1561;42.666;23.392;2023-11-22T08:17:14;94660.84;;;9.70;100.00
3102;BME280;1561;42.666;23.392;2023-11-22T08:19:42;94713.59;;;9.70;100.00
3102;BME280;1561;42.666;23.392;2023-11-22T08:22:11;94717.13;;;9.88;100.00
3102;BME280;1561;42.666;23.392;2023-11-22T08:24:39;94721.41;;;9.78;100.00
3102;BME280;1561;42.666;23.392;2023-11-22T08:27:06;94730.19;;;10.04;100.00
3102;BME280;1561;42.666;23.392;2023-11-22T08:29:38;94733.44;;;10.15;100.00
3102;BME280;1561;42.666;23.392;2023-11-22T08:32:11;94733.94;;;10.00;100.00
3102;BME280;1561;42.666;23.392;2023-11-22T08:34:49;94734.19;;;9.87;100.00
3102;BME280;1561;42.666;23.392;2023-11-22T08:37:29;94733.47;;;10.25;100.00
3102;BME280;1561;42.666;23.392;2023-11-22T08:40:08;94738.69;;;10.33;100.00
3102;BME280;1561;42.666;23.392;2023-11-22T08:42:38;94717.75;;;10.29;100.00
3102;BME280;1561;42.666;23.392;2023-11-22T08:45:31;94732.78;;;10.51;100.00
3102;BME280;1561;42.666;23.392;2023-11-22T08:48:10;94748.09;;;10.42;100.00
3102;BME280;1561;42.666;23.392;2023-11-22T08:50:41;94752.13;;;10.44;100.00
3102;BME280;1561;42.666;23.392;2023-11-22T08:53:25;94747.59;;;10.48;100.00
3102;BME280;1561;42.666;23.392;2023-11-22T08:55:55;94738.84;;;10.41;100.00
3102;BME280;1561;42.666;23.392;2023-11-22T09:01:44;94752.16;;;10.35;100.00
3102;BME280;1561;42.666;23.392;2023-11-22T09:04:26;94746.22;;;10.44;100.00
3102;BME280;1561;42.666;23.392;2023-11-22T09:06:54;94739.91;;;10.57;100.00
3102;BME280;1561;42.666;23.392;2023-11-22T09:09:26;94703.22;;;10.11;100.00
3102;BME280;1561;42.666;23.392;2023-11-22T09:11:57;94754.00;;;10.61;100.00
3102;BME280;1561;42.666;23.392;2023-11-22T09:14:25;94750.38;;;10.64;100.00
3102;BME280;1561;42.666;23.392;2023-11-22T09:16:56;94750.38;;;10.64;100.00
3102;BME280;1561;42.666;23.392;2023-11-22T09:19:25;94693.13;;;10.09;100.00
3102;BME280;1561;42.666;23.392;2023-11-22T09:21:57;94760.59;;;10.45;100.00
3102;BME280;1561;42.666;23.392;2023-11-22T09:24:50;94769.63;;;10.58;100.00
3102;BME280;1561;42.666;23.392;2023-11-22T09:27:30;94756.31;;;10.45;100.00
3102;BME280;1561;42.666;23.392;2023-11-22T09:30:20;94747.03;;;10.54;100.00
3102;BME280;1561;42.666;23.392;2023-11-22T09:33:02;94766.91;;;10.41;100.00
3102;BME280;1561;42.666;23.392;2023-11-22T09:35:31;94786.69;;;10.67;100.00
3102;BME280;1561;42.666;23.392;2023-11-22T09:38:02;94776.72;;;10.36;100.00
3102;BME280;1561;42.666;23.392;2023-11-22T09:40:55;94779.38;;;10.15;100.00
3102;BME280;1561;42.666;23.392;2023-11-22T09:43:27;94767.28;;;10.17;100.00
3102;BME280;1561;42.666;23.392;2023-11-22T09:46:03;94776.47;;;10.39;100.00
3102;BME280;1561;42.666;23.392;2023-11-22T09:48:42;94676.19;;;9.89;100.00
3102;BME280;1561;42.666;23.392;2023-11-22T09:51:18;94765.31;;;10.49;100.00
3102;BME280;1561;42.666;23.392;2023-11-22T09:53:55;94764.63;;;10.38;100.00
3102;BME280;1561;42.666;23.392;2023-11-22T09:56:40;94772.97;;;10.59;100.00
3102;BME280;1561;42.666;23.392;2023-11-22T09:59:21;94763.56;;;10.40;100.00
3102;BME280;1561;42.666;23.392;2023-11-22T10:02:10;94764.88;;;10.25;100.00
3102;BME280;1561;42.666;23.392;2023-11-22T10:05:29;94734.66;;;10.30;100.00
3102;BME280;1561;42.666;23.392;2023-11-22T10:08:02;94688.94;;;9.99;100.00
3102;BME280;1561;42.666;23.392;2023-11-22T10:10:44;94773.00;;;10.78;100.00
3102;BME280;1561;42.666;23.392;2023-11-22T10:13:31;94748.09;;;10.42;100.00
3102;BME280;1561;42.666;23.392;2023-11-22T10:16:19;94768.94;;;10.85;100.00
3102;BME280;1561;42.666;23.392;2023-11-22T10:18:48;94764.63;;;10.85;100.00
3102;BME280;1561;42.666;23.392;2023-11-22T10:21:29;94710.22;;;10.37;100.00
3102;BME280;1561;42.666;23.392;2023-11-22T10:24:02;94761.69;;;10.71;100.00
3102;BME280;1561;42.666;23.392;2023-11-22T10:26:44;94719.00;;;11.00;100.00
3102;BME280;1561;42.666;23.392;2023-11-22T10:32:37;94767.41;;;11.01;100.00
3102;BME280;1561;42.666;23.392;2023-11-22T10:35:13;94756.16;;;10.85;100.00
3102;BME280;1561;42.666;23.392;2023-11-22T10:37:48;94748.09;;;10.89;100.00
3102;BME280;1561;42.666;23.392;2023-11-22T10:40:22;94761.53;;;11.01;100.00
3102;BME280;1561;42.666;23.392;2023-11-22T10:42:58;94770.53;;;10.95;100.00
3102;BME280;1561;42.666;23.392;2023-11-22T10:46:02;94769.31;;;11.09;100.00
3102;BME280;1561;42.666;23.392;2023-11-22T10:48:48;94770.06;;;11.28;100.00
3102;BME280;1561;42.666;23.392;2023-11-22T10:51:49;94781.81;;;11.12;100.00
3102;BME280;1561;42.666;23.392;2023-11-22T10:54:34;94735.78;;;11.12;100.00
3102;BME280;1561;42.666;23.392;2023-11-22T10:57:13;94764.00;;;11.29;100.00
3102;BME280;1561;42.666;23.392;2023-11-22T10:59:54;94777.56;;;11.39;100.00
3102;BME280;1561;42.666;23.392;2023-11-22T11:02:44;94662.50;;;11.03;100.00
3102;BME280;1561;42.666;23.392;2023-11-22T11:05:33;94759.09;;;11.91;100.00
3102;BME280;1561;42.666;23.392;2023-11-22T11:08:18;94752.44;;;11.98;100.00
3102;BME280;1561;42.666;23.392;2023-11-22T11:10:56;94753.53;;;11.96;100.00
3102;BME280;1561;42.666;23.392;2023-11-22T11:13:25;94754.47;;;11.95;100.00
3102;BME280;1561;42.666;23.392;2023-11-22T11:15:54;94771.16;;;11.72;100.00
3102;BME280;1561;42.666;23.392;2023-11-22T11:18:27;94721.13;;;11.14;100.00
3102;BME280;1561;42.666;23.392;2023-11-22T11:21:09;94770.34;;;11.71;100.00
3102;BME280;1561;42.666;23.392;2023-11-22T11:23:39;94708.69;;;11.28;100.00
3102;BME280;1561;42.666;23.392;2023-11-22T11:26:14;94719.56;;;10.94;100.00
3102;BME280;1561;42.666;23.392;2023-11-22T11:28:51;94762.44;;;11.09;100.00
3102;BME280;1561;42.666;23.392;2023-11-22T11:31:21;94760.03;;;10.98;100.00
3102;BME280;1561;42.666;23.392;2023-11-22T11:36:54;94762.84;;;11.51;100.00
3102;BME280;1561;42.666;23.392;2023-11-22T11:39:30;94766.91;;;11.44;100.00
3102;BME280;1561;42.666;23.392;2023-11-22T11:42:16;94759.31;;;11.71;100.00
3102;BME280;1561;42.666;23.392;2023-11-22T11:45:04;94767.38;;;12.03;100.00
3102;BME280;1561;42.666;23.392;2023-11-22T11:47:46;94770.72;;;12.03;100.00
3102;BME280;1561;42.666;23.392;2023-11-22T11:51:04;94772.22;;;12.06;100.00
3102;BME280;1561;42.666;23.392;2023-11-22T11:56:40;94744.78;;;12.16;100.00
3102;BME280;1561;42.666;23.392;2023-11-22T11:59:30;94762.22;;;12.47;100.00
3102;BME280;1561;42.666;23.392;2023-11-22T12:02:04;94756.81;;;12.50;100.00
3102;BME280;1561;42.666;23.392;2023-11-22T12:04:43;94770.56;;;12.32;100.00
3102;BME280;1561;42.666;23.392;2023-11-22T12:07:13;94775.66;;;11.60;100.00
3102;BME280;1561;42.666;23.392;2023-11-22T12:09:46;94766.88;;;11.53;100.00
3102;BME280;1561;42.666;23.392;2023-11-22T12:12:28;94781.41;;;11.62;100.00
3102;BME280;1561;42.666;23.392;2023-11-22T12:14:57;94763.53;;;11.53;100.00
3102;BME280;1561;42.666;23.392;2023-11-22T12:17:43;94768.47;;;12.00;100.00
3102;BME280;1561;42.666;23.392;2023-11-22T12:20:11;94789.91;;;11.99;100.00
3102;BME280;1561;42.666;23.392;2023-11-22T12:22:48;94801.97;;;12.07;100.00
3102;BME280;1561;42.666;23.392;2023-11-22T12:25:18;94792.38;;;12.09;100.00
3102;BME280;1561;42.666;23.392;2023-11-22T12:27:57;94802.91;;;12.33;100.00
3102;BME280;1561;42.666;23.392;2023-11-22T12:30:29;94802.50;;;12.28;100.00
3102;BME280;1561;42.666;23.392;2023-11-22T12:33:06;94791.19;;;12.03;100.00
3102;BME280;1561;42.666;23.392;2023-11-22T12:35:35;94741.19;;;11.64;100.00
3102;BME280;1561;42.666;23.392;2023-11-22T12:38:11;94760.59;;;11.84;100.00
3102;BME280;1561;42.666;23.392;2023-11-22T12:40:49;94798.22;;;12.01;100.00
3102;BME280;1561;42.666;23.392;2023-11-22T12:43:20;94799.56;;;12.05;100.00
3102;BME280;1561;42.666;23.392;2023-11-22T12:46:14;94794.06;;;12.00;100.00
3102;BME280;1561;42.666;23.392;2023-11-22T12:48:42;94807.47;;;12.12;100.00
3102;BME280;1561;42.666;23.392;2023-11-22T12:51:24;94745.34;;;11.65;100.00
3102;BME280;1561;42.666;23.392;2023-11-22T12:53:59;94737.16;;;11.43;100.00
3102;BME280;1561;42.666;23.392;2023-11-22T12:56:31;94819.31;;;12.13;100.00
3102;BME280;1561;42.666;23.392;2023-11-22T12:59:08;94818.72;;;12.01;100.00
3102;BME280;1561;42.666;23.392;2023-11-22T13:01:57;94817.81;;;11.93;100.00
3102;BME280;1561;42.666;23.392;2023-11-22T13:07:52;94833.44;;;11.90;100.00
3102;BME280;1561;42.666;23.392;2023-11-22T13:10:25;94844.09;;;12.12;100.00
3102;BME280;1561;42.666;23.392;2023-11-22T13:13:00;94842.13;;;12.33;100.00
3102;BME280;1561;42.666;23.392;2023-11-22T13:15:55;94819.28;;;11.95;100.00
3102;BME280;1561;42.666;23.392;2023-11-22T13:18:28;94841.78;;;11.92;100.00
3102;BME280;1561;42.666;23.392;2023-11-22T13:21:05;94789.72;;;11.74;100.00
3102;BME280;1561;42.666;23.392;2023-11-22T13:23:41;94840.56;;;12.23;100.00
3102;BME280;1561;42.666;23.392;2023-11-22T13:26:11;94850.31;;;12.10;100.00
3102;BME280;1561;42.666;23.392;2023-11-22T13:28:49;94854.91;;;11.79;100.00
3102;BME280;1561;42.666;23.392;2023-11-22T13:31:33;94835.38;;;11.78;100.00
3102;BME280;1561;42.666;23.392;2023-11-22T13:34:07;94854.41;;;12.03;100.00
3102;BME280;1561;42.666;23.392;2023-11-22T13:36:39;94850.72;;;12.15;100.00
3102;BME280;1561;42.666;23.392;2023-11-22T13:39:26;94857.00;;;12.20;100.00
3102;BME280;1561;42.666;23.392;2023-11-22T13:42:05;94860.53;;;11.83;100.00
3102;BME280;1561;42.666;23.392;2023-11-22T13:44:46;94750.44;;;11.19;100.00
3102;BME280;1561;42.666;23.392;2023-11-22T13:47:33;94871.91;;;12.07;100.00
3102;BME280;1561;42.666;23.392;2023-11-22T13:50:07;94860.50;;;12.02;100.00
3102;BME280;1561;42.666;23.392;2023-11-22T13:52:44;94862.31;;;11.82;100.00
3102;BME280;1561;42.666;23.392;2023-11-22T13:55:31;94863.13;;;11.54;100.00
3102;BME280;1561;42.666;23.392;2023-11-22T13:58:03;94890.00;;;11.96;100.00
3102;BME280;1561;42.666;23.392;2023-11-22T14:00:44;94898.28;;;11.71;100.00
3102;BME280;1561;42.666;23.392;2023-11-22T14:03:36;94897.03;;;11.85;100.00
3102;BME280;1561;42.666;23.392;2023-11-22T14:06:26;94903.78;;;11.76;100.00
3102;BME280;1561;42.666;23.392;2023-11-22T14:09:11;94910.69;;;11.66;100.00
3102;BME280;1561;42.666;23.392;2023-11-22T14:11:43;94891.13;;;11.56;100.00
3102;BME280;1561;42.666;23.392;2023-11-22T14:14:15;94911.34;;;11.49;100.00
3102;BME280;1561;42.666;23.392;2023-11-22T14:16:47;94905.44;;;11.49;100.00